createdAt,value
2022-12-20T00:00:52.465Z,57.03
2022-12-20T00:03:20.675Z,55.80
2022-12-20T00:05:49.008Z,54.45
2022-12-20T00:08:17.447Z,56.18
2022-12-20T00:10:46.726Z,54.90
2022-12-20T00:13:14.179Z,56.32
2022-12-20T00:15:41.357Z,55.56
2022-12-20T00:18:08.858Z,56.17
2022-12-20T00:20:36.077Z,56.06
2022-12-20T00:23:03.272Z,56.39
2022-12-20T00:25:30.701Z,55.57
2022-12-20T00:27:57.824Z,53.86
2022-12-20T00:30:24.986Z,56.77
2022-12-20T00:32:52.445Z,54.94
2022-12-20T00:35:19.631Z,57.40
2022-12-20T00:37:46.784Z,56.40
2022-12-20T00:40:14.486Z,54.45
2022-12-20T00:42:41.623Z,53.11
2022-12-20T00:45:09.032Z,56.82
2022-12-20T00:47:36.479Z,56.38
2022-12-20T00:50:03.692Z,56.54
2022-12-20T00:52:30.943Z,56.55
2022-12-20T00:54:58.598Z,55.38
2022-12-20T00:57:25.917Z,56.49
2022-12-20T00:59:53.289Z,56.52
2022-12-20T01:02:21.148Z,54.93
2022-12-20T01:04:49.184Z,56.90
2022-12-20T01:07:16.331Z,57.34
2022-12-20T01:09:43.797Z,58.22
2022-12-20T01:12:11.412Z,56.28
2022-12-20T01:14:39.582Z,55.13
2022-12-20T01:17:07.084Z,56.97
2022-12-20T01:19:34.286Z,57.98
2022-12-20T01:22:02.025Z,57.72
2022-12-20T01:24:29.507Z,57.31
2022-12-20T01:26:56.705Z,59.08
2022-12-20T01:29:23.872Z,56.05
2022-12-20T01:31:51.432Z,55.00
2022-12-20T01:34:18.569Z,56.94
2022-12-20T01:36:45.740Z,59.38
2022-12-20T01:39:14.546Z,59.85
2022-12-20T01:41:42.703Z,58.27
2022-12-20T01:44:18.762Z,57.89
2022-12-20T01:46:46.883Z,57.23
2022-12-20T01:49:15.119Z,57.21
2022-12-20T01:51:47.466Z,56.40
2022-12-20T01:54:16.149Z,58.29
2022-12-20T01:56:43.543Z,59.45
2022-12-20T01:59:10.712Z,56.77
2022-12-20T02:01:38.214Z,57.42
2022-12-20T02:04:05.747Z,56.93
2022-12-20T02:06:33.131Z,58.75
2022-12-20T02:09:00.742Z,55.06
2022-12-20T02:11:47.936Z,55.14
2022-12-20T02:14:33.956Z,57.04
2022-12-20T02:17:01.384Z,58.32
2022-12-20T02:19:28.514Z,54.89
2022-12-20T02:22:01.005Z,52.53
2022-12-20T02:24:35.567Z,53.58
2022-12-20T02:27:22.607Z,51.65
2022-12-20T02:30:06.599Z,51.25
2022-12-20T02:32:36.330Z,52.29
2022-12-20T02:35:05.395Z,50.47
2022-12-20T02:37:32.631Z,52.67
2022-12-20T02:40:00.012Z,52.27
2022-12-20T02:42:27.620Z,51.85
2022-12-20T02:45:15.065Z,53.85
2022-12-20T02:47:45.720Z,53.86
2022-12-20T02:50:12.943Z,54.75
2022-12-20T02:52:42.476Z,54.81
2022-12-20T02:55:10.221Z,54.35
2022-12-20T02:57:57.894Z,53.26
2022-12-20T03:00:27.487Z,54.18
2022-12-20T03:03:13.504Z,54.28
2022-12-20T03:05:44.763Z,58.33
2022-12-20T03:08:11.910Z,59.90
2022-12-20T03:10:39.217Z,57.95
2022-12-20T03:13:06.657Z,57.62
2022-12-20T03:15:35.543Z,56.60
2022-12-20T03:18:02.985Z,57.41
2022-12-20T03:20:30.473Z,56.61
2022-12-20T03:22:57.630Z,56.02
2022-12-20T03:25:24.823Z,54.92
2022-12-20T03:27:52.393Z,58.27
2022-12-20T03:30:19.756Z,55.14
2022-12-20T03:32:46.997Z,51.92
2022-12-20T03:35:14.734Z,52.14
2022-12-20T03:37:41.988Z,53.94
2022-12-20T03:40:09.700Z,51.60
2022-12-20T03:42:37.182Z,51.16
2022-12-20T03:45:04.712Z,49.91
2022-12-20T03:47:32.045Z,50.22
2022-12-20T03:49:59.681Z,48.72
2022-12-20T03:52:27.210Z,48.53
2022-12-20T03:54:54.366Z,48.46
2022-12-20T03:57:21.826Z,48.25
2022-12-20T03:59:49.669Z,46.63
2022-12-20T04:02:17.024Z,47.51
2022-12-20T04:04:44.561Z,49.22
2022-12-20T04:07:12.369Z,46.67
2022-12-20T04:09:39.657Z,47.05
2022-12-20T04:12:07.866Z,47.50
2022-12-20T04:14:37.455Z,47.22
2022-12-20T04:17:04.787Z,48.99
2022-12-20T04:19:32.737Z,46.51
2022-12-20T04:22:05.125Z,46.83
2022-12-20T04:24:34.661Z,47.55
2022-12-20T04:27:02.451Z,49.71
2022-12-20T04:29:29.778Z,48.94
2022-12-20T04:31:58.169Z,48.67
2022-12-20T04:34:25.422Z,50.34
2022-12-20T04:36:53.014Z,53.88
2022-12-20T04:39:20.963Z,53.36
2022-12-20T04:41:51.463Z,53.93
2022-12-20T04:44:18.655Z,53.20
2022-12-20T04:46:46.127Z,51.56
2022-12-20T04:49:13.492Z,49.57
2022-12-20T04:51:40.890Z,52.34
2022-12-20T04:54:08.927Z,51.92
2022-12-20T04:56:36.457Z,50.84
2022-12-20T04:59:04.159Z,49.57
2022-12-20T05:01:31.752Z,48.24
2022-12-20T05:03:59.446Z,48.59
2022-12-20T05:06:28.720Z,48.96
2022-12-20T05:08:56.615Z,47.30
2022-12-20T05:11:23.863Z,48.39
2022-12-20T05:13:53.973Z,47.37
2022-12-20T05:16:21.629Z,46.73
2022-12-20T05:18:49.814Z,46.56
2022-12-20T05:21:36.375Z,45.81
2022-12-20T05:24:22.676Z,44.89
2022-12-20T05:26:50.756Z,46.38
2022-12-20T05:29:18.507Z,48.64
2022-12-20T05:31:45.770Z,50.24
2022-12-20T05:34:13.053Z,48.35
2022-12-20T05:36:41.033Z,48.47
2022-12-20T05:39:08.290Z,48.06
2022-12-20T05:41:35.976Z,47.62
2022-12-20T05:44:03.770Z,48.77
2022-12-20T05:46:32.747Z,49.98
2022-12-20T05:49:00.206Z,48.42
2022-12-20T05:51:27.941Z,47.88
2022-12-20T05:53:55.264Z,46.94
2022-12-20T05:56:22.935Z,46.85
2022-12-20T05:58:50.382Z,46.77
2022-12-20T06:01:18.393Z,45.91
2022-12-20T06:03:46.266Z,46.42
2022-12-20T06:06:15.233Z,45.02
2022-12-20T06:08:43.360Z,45.87
2022-12-20T06:11:11.555Z,47.32
2022-12-20T06:13:40.991Z,46.01
2022-12-20T06:16:08.712Z,45.23
2022-12-20T06:18:36.157Z,45.28
2022-12-20T06:21:04.113Z,45.83
2022-12-20T06:23:31.282Z,46.41
2022-12-20T06:25:59.031Z,47.69
2022-12-20T06:28:26.713Z,47.79
2022-12-20T06:30:55.002Z,45.90
2022-12-20T06:33:24.516Z,46.45
2022-12-20T06:35:52.168Z,47.02
2022-12-20T06:38:20.633Z,47.64
2022-12-20T06:40:48.134Z,46.95
2022-12-20T06:43:16.236Z,46.87
2022-12-20T06:45:43.507Z,44.92
2022-12-20T06:48:11.213Z,45.26
2022-12-20T06:50:39.371Z,49.26
2022-12-20T06:53:06.911Z,48.64
2022-12-20T06:55:34.860Z,47.81
2022-12-20T06:58:02.040Z,48.20
2022-12-20T07:00:29.221Z,46.52
2022-12-20T07:02:56.695Z,47.17
2022-12-20T07:05:23.928Z,48.84
2022-12-20T07:07:51.107Z,49.54
2022-12-20T07:10:18.670Z,50.54
2022-12-20T07:12:48.482Z,49.72
2022-12-20T07:15:16.131Z,49.54
2022-12-20T07:17:43.641Z,52.76
2022-12-20T07:20:13.639Z,49.80
2022-12-20T07:22:41.724Z,52.06
2022-12-20T07:25:09.375Z,50.29
2022-12-20T07:27:36.506Z,49.42
2022-12-20T07:30:05.198Z,47.71
2022-12-20T07:32:32.711Z,49.39
2022-12-20T07:34:59.960Z,50.93
2022-12-20T07:37:28.678Z,52.20
2022-12-20T07:39:56.159Z,50.71
2022-12-20T07:42:23.457Z,50.29
2022-12-20T07:44:50.817Z,54.40
2022-12-20T07:47:18.218Z,52.97
2022-12-20T07:49:45.390Z,54.42
2022-12-20T07:52:12.605Z,52.73
2022-12-20T07:54:47.320Z,52.76
2022-12-20T07:57:15.976Z,52.50
2022-12-20T07:59:48.228Z,53.11
2022-12-20T08:02:20.697Z,49.90
2022-12-20T08:04:50.694Z,51.23
2022-12-20T08:07:17.983Z,50.74
2022-12-20T08:09:45.149Z,52.47
2022-12-20T08:12:13.389Z,53.25
2022-12-20T08:14:40.593Z,56.16
2022-12-20T08:17:07.823Z,56.84
2022-12-20T08:19:35.495Z,57.31
2022-12-20T08:22:02.931Z,56.36
2022-12-20T08:24:30.099Z,56.53
2022-12-20T08:26:57.966Z,55.29
2022-12-20T08:29:25.093Z,54.71
2022-12-20T08:31:52.380Z,55.72
2022-12-20T08:34:20.173Z,56.24
2022-12-20T08:36:47.301Z,53.13
2022-12-20T08:39:14.570Z,51.83
2022-12-20T08:41:42.041Z,52.81
2022-12-20T08:44:10.769Z,50.82
2022-12-20T08:46:38.028Z,51.73
2022-12-20T08:49:05.721Z,53.16
2022-12-20T08:51:32.961Z,54.00
2022-12-20T08:54:00.318Z,53.15
2022-12-20T08:56:27.861Z,54.35
2022-12-20T08:58:55.028Z,51.20
2022-12-20T09:01:22.978Z,53.50
2022-12-20T09:03:50.657Z,53.78
2022-12-20T09:06:19.818Z,52.58
2022-12-20T09:08:47.464Z,51.94
2022-12-20T09:11:16.140Z,53.24
2022-12-20T09:13:44.846Z,54.05
2022-12-20T09:16:13.501Z,54.42
2022-12-20T09:18:41.302Z,53.69
2022-12-20T09:21:08.604Z,51.66
2022-12-20T09:23:35.988Z,51.33
2022-12-20T09:26:04.223Z,54.11
2022-12-20T09:28:31.741Z,52.10
2022-12-20T09:31:03.538Z,51.26
2022-12-20T09:33:31.565Z,51.93
2022-12-20T09:35:58.758Z,52.13
2022-12-20T09:38:26.060Z,53.52
2022-12-20T09:40:54.231Z,55.75
2022-12-20T09:43:21.628Z,54.41
2022-12-20T09:45:49.321Z,54.28
2022-12-20T09:48:18.152Z,52.34
2022-12-20T09:51:00.814Z,52.27
2022-12-20T09:53:41.694Z,54.23
2022-12-20T09:56:11.905Z,54.74
2022-12-20T09:58:45.268Z,51.96
2022-12-20T10:01:15.808Z,52.96
2022-12-20T10:03:44.272Z,53.59
2022-12-20T10:06:20.593Z,52.54
2022-12-20T10:08:57.657Z,50.37
2022-12-20T10:11:48.075Z,51.14
2022-12-20T10:14:26.966Z,53.77
2022-12-20T10:16:56.978Z,52.93
2022-12-20T10:19:24.711Z,52.71
2022-12-20T10:21:56.829Z,52.99
2022-12-20T10:24:30.961Z,52.20
2022-12-20T10:26:59.740Z,51.93
2022-12-20T10:29:26.895Z,50.68
2022-12-20T10:31:54.874Z,49.62
2022-12-20T10:34:23.012Z,52.12
2022-12-20T10:36:50.271Z,53.07
2022-12-20T10:39:17.422Z,51.85
2022-12-20T10:41:44.860Z,51.79
2022-12-20T10:44:17.738Z,52.07
2022-12-20T10:46:49.871Z,52.25
2022-12-20T10:49:31.197Z,51.03
2022-12-20T10:52:00.585Z,50.70
2022-12-20T10:54:32.290Z,52.48
2022-12-20T10:57:00.557Z,50.72
2022-12-20T10:59:32.389Z,53.18
2022-12-20T11:01:59.988Z,51.07
2022-12-20T11:04:28.947Z,52.66
2022-12-20T11:06:56.636Z,53.60
2022-12-20T11:09:27.161Z,50.74
2022-12-20T11:12:00.211Z,50.87
2022-12-20T11:14:32.751Z,51.27
2022-12-20T11:17:06.269Z,52.77
2022-12-20T11:19:39.657Z,50.38
2022-12-20T11:22:25.713Z,49.94
2022-12-20T11:24:53.660Z,46.45
2022-12-20T11:27:21.233Z,46.91
2022-12-20T11:29:48.379Z,47.65
2022-12-20T11:32:44.575Z,52.71
2022-12-20T11:35:15.473Z,49.46
2022-12-20T11:38:09.200Z,48.45
2022-12-20T11:40:39.680Z,47.49
2022-12-20T11:43:13.407Z,48.73
2022-12-20T11:45:40.574Z,48.25
2022-12-20T11:48:17.104Z,49.29
2022-12-20T11:51:03.414Z,50.02
2022-12-20T11:53:34.180Z,48.11
2022-12-20T11:56:10.102Z,50.36
2022-12-20T11:58:43.702Z,51.44
2022-12-20T12:01:13.857Z,50.86
2022-12-20T12:03:43.082Z,51.66
2022-12-20T12:06:18.149Z,49.82
2022-12-20T12:09:04.430Z,51.12
2022-12-20T12:12:05.030Z,49.99
2022-12-20T12:14:28.932Z,50.29
2022-12-20T12:16:57.420Z,50.87
2022-12-20T12:19:25.088Z,50.88
2022-12-20T12:22:02.102Z,52.56
2022-12-20T12:24:31.269Z,51.15
2022-12-20T12:26:59.027Z,50.99
2022-12-20T12:29:26.415Z,49.24
2022-12-20T12:31:55.832Z,49.62
2022-12-20T12:34:23.038Z,47.38
2022-12-20T12:36:59.337Z,49.43
2022-12-20T12:39:26.753Z,49.99
2022-12-20T12:42:00.116Z,48.67
2022-12-20T12:44:46.368Z,47.03
2022-12-20T12:47:33.788Z,46.75
2022-12-20T12:50:01.330Z,47.05
2022-12-20T12:52:42.343Z,46.29
2022-12-20T12:55:29.159Z,45.53
2022-12-20T12:57:57.262Z,46.80
2022-12-20T13:00:43.453Z,47.79
2022-12-20T13:03:15.891Z,46.14
2022-12-20T13:05:43.600Z,47.96
2022-12-20T13:08:17.818Z,47.27
2022-12-20T13:10:45.507Z,47.22
2022-12-20T13:13:14.178Z,45.38
2022-12-20T13:15:41.346Z,46.48
2022-12-20T13:18:11.842Z,44.86
2022-12-20T13:20:39.547Z,48.07
2022-12-20T13:23:10.644Z,46.95
2022-12-20T13:25:48.139Z,49.04
2022-12-20T13:28:24.557Z,49.70
2022-12-20T13:31:01.618Z,50.22
2022-12-20T13:33:43.952Z,47.36
2022-12-20T13:36:11.480Z,51.11
2022-12-20T13:38:38.848Z,48.91
2022-12-20T13:41:26.886Z,46.60
2022-12-20T13:44:00.166Z,44.30
2022-12-20T13:46:32.508Z,43.94
2022-12-20T13:49:03.095Z,47.80
2022-12-20T13:51:30.423Z,45.79
2022-12-20T13:53:58.739Z,45.64
2022-12-20T13:56:36.061Z,46.24
2022-12-20T13:59:16.753Z,45.43
2022-12-20T14:01:51.750Z,46.39
2022-12-20T14:04:19.818Z,45.16
2022-12-20T14:06:51.053Z,47.32
2022-12-20T14:09:28.637Z,45.34
2022-12-20T14:11:55.808Z,44.46
2022-12-20T14:14:23.273Z,45.89
2022-12-20T14:16:50.497Z,44.74
2022-12-20T14:19:17.689Z,43.86
2022-12-20T14:21:45.145Z,43.81
2022-12-20T14:24:17.123Z,43.00
2022-12-20T14:26:51.544Z,42.55
2022-12-20T14:29:19.617Z,43.62
2022-12-20T14:31:48.412Z,47.27
2022-12-20T14:34:16.794Z,45.00
2022-12-20T14:36:46.717Z,43.45
2022-12-20T14:39:20.236Z,43.10
2022-12-20T14:41:47.403Z,42.31
2022-12-20T14:44:18.780Z,42.68
2022-12-20T14:47:12.374Z,41.45
2022-12-20T14:49:40.802Z,40.89
2022-12-20T14:52:20.435Z,40.36
2022-12-20T14:55:11.015Z,40.18
2022-12-20T14:57:50.373Z,41.16
2022-12-20T15:00:17.922Z,41.05
2022-12-20T15:02:53.458Z,40.21
2022-12-20T15:05:33.669Z,40.71
2022-12-20T15:08:33.271Z,41.26
2022-12-20T15:11:01.155Z,40.50
2022-12-20T15:13:29.841Z,39.73
2022-12-20T15:15:58.506Z,40.07
2022-12-20T15:18:26.129Z,39.71
2022-12-20T15:21:03.657Z,39.82
2022-12-20T15:23:31.132Z,39.80
2022-12-20T15:25:59.139Z,40.62
2022-12-20T15:28:27.087Z,40.00
2022-12-20T15:30:55.365Z,39.85
2022-12-20T15:33:23.856Z,40.13
2022-12-20T15:35:51.510Z,39.82
2022-12-20T15:38:25.554Z,39.45
2022-12-20T15:41:05.662Z,39.59
2022-12-20T15:43:38.970Z,39.20
2022-12-20T15:46:06.388Z,39.45
2022-12-20T15:48:34.001Z,38.51
2022-12-20T15:51:01.299Z,38.33
2022-12-20T15:53:31.517Z,41.51
2022-12-20T15:55:59.188Z,46.29
2022-12-20T15:58:32.460Z,45.50
2022-12-20T16:01:00.879Z,47.69
2022-12-20T16:03:30.384Z,47.78
2022-12-20T16:05:57.877Z,45.85
2022-12-20T16:08:25.078Z,47.92
2022-12-20T16:10:52.589Z,46.94
2022-12-20T16:13:23.259Z,48.72
2022-12-20T16:15:51.014Z,49.41
2022-12-20T16:18:18.523Z,52.23
2022-12-20T16:20:45.783Z,52.10
2022-12-20T16:23:16.654Z,50.72
2022-12-20T16:25:44.737Z,51.68
2022-12-20T16:28:12.101Z,54.83
2022-12-20T16:30:39.502Z,53.40
2022-12-20T16:33:08.413Z,54.98
2022-12-20T16:35:38.772Z,54.27
2022-12-20T16:38:05.976Z,54.49
2022-12-20T16:40:33.462Z,53.13
2022-12-20T16:43:00.793Z,54.07
2022-12-20T16:45:28.914Z,52.28
2022-12-20T16:47:56.472Z,52.54
2022-12-20T16:50:24.492Z,50.15
2022-12-20T16:52:51.836Z,52.05
2022-12-20T16:55:23.638Z,51.08
2022-12-20T16:57:50.943Z,51.10
2022-12-20T17:00:19.998Z,52.79
2022-12-20T17:02:47.477Z,52.92
2022-12-20T17:05:28.905Z,51.82
2022-12-20T17:07:56.567Z,53.13
2022-12-20T17:10:24.024Z,52.30
2022-12-20T17:12:51.256Z,52.51
2022-12-20T17:15:23.465Z,51.22
2022-12-20T17:17:51.060Z,50.65
2022-12-20T17:20:19.508Z,50.59
2022-12-20T17:22:50.355Z,48.29
2022-12-20T17:25:21.799Z,46.74
2022-12-20T17:27:49.666Z,50.76
2022-12-20T17:30:16.971Z,50.44
2022-12-20T17:32:44.247Z,48.04
2022-12-20T17:35:30.830Z,47.23
2022-12-20T17:37:58.373Z,46.45
2022-12-20T17:40:26.768Z,45.63
2022-12-20T17:42:54.161Z,45.03
2022-12-20T17:45:22.813Z,44.79
2022-12-20T17:47:50.473Z,44.52
2022-12-20T17:50:18.100Z,44.87
2022-12-20T17:52:45.973Z,44.22
2022-12-20T17:55:21.045Z,44.40
2022-12-20T17:57:48.317Z,46.27
2022-12-20T18:00:18.274Z,47.49
2022-12-20T18:02:46.197Z,51.51
2022-12-20T18:05:13.635Z,50.40
2022-12-20T18:07:41.014Z,49.13
2022-12-20T18:10:09.090Z,47.23
2022-12-20T18:12:37.802Z,48.55
2022-12-20T18:15:07.436Z,47.54
2022-12-20T18:17:35.045Z,47.17
2022-12-20T18:20:02.254Z,46.74
2022-12-20T18:22:32.134Z,45.57
2022-12-20T18:25:00.160Z,50.79
2022-12-20T18:27:30.896Z,48.88
2022-12-20T18:29:58.320Z,48.89
2022-12-20T18:32:26.013Z,50.98
2022-12-20T18:34:53.497Z,50.24
2022-12-20T18:37:20.877Z,48.76
2022-12-20T18:39:48.934Z,49.03
2022-12-20T18:42:16.739Z,52.09
2022-12-20T18:44:44.323Z,51.30
2022-12-20T18:47:12.335Z,49.76
2022-12-20T18:49:39.927Z,46.96
2022-12-20T18:52:07.141Z,48.35
2022-12-20T18:54:34.664Z,47.23
2022-12-20T18:57:04.740Z,48.74
2022-12-20T18:59:34.258Z,47.48
2022-12-20T19:02:02.110Z,46.90
2022-12-20T19:04:29.654Z,46.36
2022-12-20T19:06:56.993Z,47.02
2022-12-20T19:09:24.624Z,45.34
2022-12-20T19:11:57.035Z,44.35
2022-12-20T19:14:25.458Z,45.52
2022-12-20T19:16:53.301Z,47.50
2022-12-20T19:19:20.622Z,47.30
2022-12-20T19:21:48.475Z,48.26
2022-12-20T19:24:16.288Z,48.21
2022-12-20T19:26:43.572Z,45.63
2022-12-20T19:29:12.277Z,45.20
2022-12-20T19:31:39.741Z,44.57
2022-12-20T19:34:08.473Z,44.13
2022-12-20T19:36:40.066Z,43.73
2022-12-20T19:39:08.499Z,43.21
2022-12-20T19:41:36.236Z,43.32
2022-12-20T19:44:06.702Z,42.54
2022-12-20T19:46:34.046Z,44.10
2022-12-20T19:49:01.656Z,43.99
2022-12-20T19:51:29.196Z,42.91
2022-12-20T19:53:57.688Z,42.49
2022-12-20T19:56:32.437Z,41.78
2022-12-20T19:58:59.969Z,43.03
2022-12-20T20:01:28.173Z,43.21
2022-12-20T20:03:57.684Z,44.77
2022-12-20T20:06:25.492Z,43.62
2022-12-20T20:08:52.837Z,42.07
2022-12-20T20:11:21.166Z,42.44
2022-12-20T20:13:48.629Z,41.58
2022-12-20T20:16:21.852Z,40.95
2022-12-20T20:18:50.203Z,40.89
2022-12-20T20:21:21.194Z,40.86
2022-12-20T20:23:52.794Z,40.87
2022-12-20T20:26:24.437Z,40.60
2022-12-20T20:28:52.274Z,40.55
2022-12-20T20:31:20.282Z,40.93
2022-12-20T20:33:48.050Z,40.87
2022-12-20T20:36:16.135Z,41.76
2022-12-20T20:38:43.592Z,45.38
2022-12-20T20:41:10.795Z,44.32
2022-12-20T20:43:38.566Z,46.33
2022-12-20T20:46:07.388Z,45.20
2022-12-20T20:48:35.323Z,48.69
2022-12-20T20:51:02.513Z,45.73
2022-12-20T20:53:33.919Z,45.72
2022-12-20T20:56:05.783Z,48.47
2022-12-20T20:58:34.191Z,46.90
2022-12-20T21:01:01.903Z,48.13
2022-12-20T21:03:30.163Z,48.75
2022-12-20T21:08:45.350Z,49.71
2022-12-20T21:11:13.136Z,50.39
2022-12-20T21:13:40.570Z,50.95
2022-12-20T21:16:11.651Z,51.55
2022-12-20T21:18:39.408Z,49.95
2022-12-20T21:21:09.215Z,52.00
2022-12-20T21:23:36.620Z,51.94
2022-12-20T21:26:04.277Z,52.18
2022-12-20T21:28:31.722Z,52.73
2022-12-20T21:31:00.040Z,52.07
2022-12-20T21:33:28.218Z,54.36
2022-12-20T21:36:01.856Z,54.18
2022-12-20T21:38:29.356Z,54.23
2022-12-20T21:41:00.573Z,54.67
2022-12-20T21:43:27.958Z,54.06
2022-12-20T21:45:56.304Z,54.34
2022-12-20T21:48:24.014Z,55.14
2022-12-20T21:50:57.954Z,53.98
2022-12-20T21:53:25.435Z,54.65
2022-12-20T21:55:56.682Z,52.81
2022-12-20T21:58:24.363Z,51.76
2022-12-20T22:00:54.871Z,51.29
2022-12-20T22:03:23.967Z,51.29
2022-12-20T22:05:52.222Z,52.04
2022-12-20T22:08:19.664Z,52.59
2022-12-20T22:10:47.140Z,52.43
2022-12-20T22:13:14.951Z,52.87
2022-12-20T22:15:42.137Z,55.01
2022-12-20T22:18:10.094Z,53.76
2022-12-20T22:20:37.270Z,54.29
2022-12-20T22:23:04.965Z,54.24
2022-12-20T22:25:35.218Z,54.50
2022-12-20T22:28:02.489Z,55.28
2022-12-20T22:30:30.107Z,56.33
2022-12-20T22:32:57.742Z,56.05
2022-12-20T22:35:25.113Z,57.09
2022-12-20T22:37:52.334Z,54.11
2022-12-20T22:40:19.943Z,54.93
2022-12-20T22:42:47.114Z,55.05
2022-12-20T22:45:14.427Z,56.68
2022-12-20T22:50:26.393Z,55.83
2022-12-20T22:52:53.771Z,53.13
2022-12-20T22:55:21.082Z,53.47
2022-12-20T22:57:48.213Z,53.95
2022-12-20T23:00:15.856Z,52.68
2022-12-20T23:02:43.119Z,54.21
2022-12-20T23:05:10.374Z,52.89
2022-12-20T23:07:38.008Z,51.46
2022-12-20T23:10:25.438Z,50.21
2022-12-20T23:13:11.800Z,51.62
2022-12-20T23:15:41.642Z,50.34
2022-12-20T23:18:09.081Z,52.22
2022-12-20T23:20:54.741Z,52.93
2022-12-20T23:23:22.489Z,52.21
2022-12-20T23:25:49.620Z,51.90
2022-12-20T23:28:16.715Z,52.17
2022-12-20T23:30:44.175Z,50.21
2022-12-20T23:33:11.348Z,53.28
2022-12-20T23:35:39.711Z,51.73
2022-12-20T23:38:07.615Z,51.30
2022-12-20T23:40:34.752Z,51.64
2022-12-20T23:43:02.412Z,50.35
2022-12-20T23:45:30.322Z,50.70
2022-12-20T23:47:57.493Z,51.36
2022-12-20T23:50:24.617Z,49.73
2022-12-20T23:52:51.985Z,50.69
2022-12-20T23:55:19.160Z,51.21
2022-12-20T23:57:46.291Z,51.17
